Terminal Aerodrome Forecast
Issued by NWS

Home | Current Version | Previous Version | Graphics & Text | Print | Product List | Glossary On
Versions: 1 2 3 4 5 6 7 8 9 10 11 12 13 14 15 16 17 18
000
FTUS42 KMHX 021136
TAFOAJ
TAF
KOAJ 021136Z 0212/0312 24005KT 3SM BR OVC003
     FM021400 27004KT P6SM SCT005 BKN024
      TEMPO 0214/0215 6SM BR OVC005
     FM021800 35008KT P6SM SCT025 BKN050
     FM030000 04004KT P6SM SCT250
      AMD LTD TO CLD VIS AND WIND=

USA.gov is the U.S. government's official web portal to all federal, state and local government web resources and services.